createdAt,value
2023-05-23T00:01:08.554Z,4.60
2023-05-23T00:03:56.555Z,5.60
2023-05-23T00:06:47.077Z,5.17
2023-05-23T00:09:34.141Z,5.90
2023-05-23T00:12:21.239Z,5.33
2023-05-23T00:15:10.033Z,8.73
2023-05-23T00:17:58.168Z,5.67
2023-05-23T00:20:45.687Z,9.80
2023-05-23T00:23:33.989Z,4.67
2023-05-23T00:26:21.900Z,6.00
2023-05-23T00:29:15.743Z,10.03
2023-05-23T00:32:02.702Z,5.83
2023-05-23T00:34:50.946Z,5.17
2023-05-23T00:37:38.649Z,6.13
2023-05-23T00:40:25.076Z,8.37
2023-05-23T00:43:12.486Z,4.93
2023-05-23T00:45:59.936Z,8.13
2023-05-23T00:48:46.856Z,6.50
2023-05-23T00:51:35.217Z,5.73
2023-05-23T00:54:26.028Z,6.00
2023-05-23T00:57:14.358Z,7.00
2023-05-23T01:00:01.638Z,5.00
2023-05-23T01:02:51.447Z,5.47
2023-05-23T01:05:38.204Z,4.93
2023-05-23T01:08:26.347Z,7.07
2023-05-23T01:11:19.099Z,149.73
2023-05-23T01:14:10.558Z,90.23
2023-05-23T01:17:03.854Z,47.83
2023-05-23T01:20:01.222Z,35.47
2023-05-23T01:23:11.840Z,16.13
2023-05-23T01:26:26.321Z,7.87
2023-05-23T01:29:21.453Z,9.07
2023-05-23T01:32:13.258Z,10.50
2023-05-23T01:35:02.067Z,4.80
2023-05-23T01:37:48.610Z,5.93
2023-05-23T01:40:35.369Z,6.67
2023-05-23T01:43:22.598Z,4.90
2023-05-23T01:46:14.237Z,4.73
2023-05-23T01:49:02.049Z,6.03
2023-05-23T01:51:49.004Z,6.53
2023-05-23T01:54:35.788Z,5.03
2023-05-23T01:57:24.242Z,7.60
2023-05-23T02:00:12.388Z,6.00
2023-05-23T02:03:04.221Z,5.07
2023-05-23T02:05:52.812Z,6.20
2023-05-23T02:08:39.551Z,5.03
2023-05-23T02:11:26.969Z,5.33
2023-05-23T02:14:13.926Z,7.17
2023-05-23T02:17:00.760Z,8.27
2023-05-23T02:19:49.070Z,8.33
2023-05-23T02:22:35.577Z,7.03
2023-05-23T02:25:22.362Z,7.90
2023-05-23T02:28:09.168Z,6.03
2023-05-23T02:30:56.242Z,4.63
2023-05-23T02:33:43.453Z,7.33
2023-05-23T02:36:33.500Z,6.60
2023-05-23T02:39:20.727Z,6.83
2023-05-23T02:42:07.915Z,7.23
2023-05-23T02:44:54.368Z,5.90
2023-05-23T02:47:41.169Z,7.47
2023-05-23T02:50:29.002Z,4.97
2023-05-23T02:53:17.376Z,6.80
2023-05-23T02:56:04.413Z,6.67
2023-05-23T02:58:51.159Z,7.63
2023-05-23T03:01:37.964Z,6.30
2023-05-23T03:04:24.646Z,9.97
2023-05-23T03:07:27.059Z,6.40
2023-05-23T03:10:17.144Z,11.20
2023-05-23T03:13:04.694Z,7.47
2023-05-23T03:15:51.779Z,6.70
2023-05-23T03:18:38.618Z,10.60
2023-05-23T03:21:25.941Z,6.53
2023-05-23T03:24:12.889Z,8.30
2023-05-23T03:27:01.669Z,12.43
2023-05-23T03:29:49.292Z,21.47
2023-05-23T03:32:36.631Z,10.00
2023-05-23T03:35:23.968Z,7.50
2023-05-23T03:38:10.803Z,8.37
2023-05-23T03:40:57.536Z,12.27
2023-05-23T03:43:46.145Z,8.17
2023-05-23T03:46:33.435Z,8.37
2023-05-23T03:49:20.748Z,9.53
2023-05-23T03:52:07.959Z,7.70
2023-05-23T03:54:55.710Z,6.37
2023-05-23T03:57:43.164Z,8.60
2023-05-23T04:00:31.584Z,8.53
2023-05-23T04:03:21.569Z,8.00
2023-05-23T04:06:12.227Z,6.13
2023-05-23T04:09:02.659Z,7.57
2023-05-23T04:11:51.585Z,6.33
2023-05-23T04:14:39.649Z,7.73
2023-05-23T04:17:29.735Z,10.50
2023-05-23T04:20:16.861Z,10.00
2023-05-23T04:23:03.655Z,16.87
2023-05-23T04:25:52.976Z,17.00
2023-05-23T04:28:46.418Z,15.60
2023-05-23T04:31:34.109Z,15.47
2023-05-23T04:34:23.306Z,13.93
2023-05-23T04:37:10.459Z,6.53
2023-05-23T04:39:59.433Z,6.57
2023-05-23T04:43:16.533Z,8.07
2023-05-23T04:46:14.088Z,8.03
2023-05-23T04:49:04.234Z,7.87
2023-05-23T04:51:52.708Z,8.50
2023-05-23T04:54:45.038Z,7.37
2023-05-23T04:57:32.432Z,7.43
2023-05-23T05:00:21.753Z,8.17
2023-05-23T05:03:10.086Z,8.60
2023-05-23T05:06:02.035Z,10.43
2023-05-23T05:08:49.954Z,7.90
2023-05-23T05:11:36.871Z,8.50
2023-05-23T05:14:23.459Z,6.93
2023-05-23T05:17:10.338Z,11.00
2023-05-23T05:20:19.370Z,14.30
2023-05-23T05:23:05.852Z,10.23
2023-05-23T05:25:54.136Z,7.67
2023-05-23T05:28:41.903Z,11.27
2023-05-23T05:31:29.754Z,6.97
2023-05-23T05:34:16.346Z,10.73
2023-05-23T05:37:04.141Z,8.10
2023-05-23T05:39:50.886Z,11.13
2023-05-23T05:42:39.023Z,7.83
2023-05-23T05:45:25.890Z,9.37
2023-05-23T05:48:13.719Z,9.37
2023-05-23T05:51:01.272Z,10.70
2023-05-23T05:53:51.349Z,15.57
2023-05-23T05:56:38.245Z,8.47
2023-05-23T05:59:26.312Z,8.27
2023-05-23T06:02:14.747Z,13.23
2023-05-23T06:05:01.516Z,6.87
2023-05-23T06:07:51.374Z,9.63
2023-05-23T06:10:39.824Z,8.50
2023-05-23T06:13:26.824Z,9.10
2023-05-23T06:16:16.241Z,8.17
2023-05-23T06:19:04.937Z,10.93
2023-05-23T06:21:51.890Z,8.17
2023-05-23T06:24:40.035Z,8.90
2023-05-23T06:27:26.981Z,11.70
2023-05-23T06:30:14.905Z,12.47
2023-05-23T06:33:02.831Z,16.37
2023-05-23T06:35:49.268Z,13.10
2023-05-23T06:38:36.240Z,10.77
2023-05-23T06:41:22.956Z,13.63
2023-05-23T06:44:11.659Z,13.57
2023-05-23T06:47:00.826Z,12.60
2023-05-23T06:49:48.973Z,12.33
2023-05-23T06:52:35.793Z,8.00
2023-05-23T06:55:22.970Z,8.50
2023-05-23T06:58:09.859Z,14.47
2023-05-23T07:00:58.333Z,12.53
2023-05-23T07:03:48.300Z,11.10
2023-05-23T07:06:36.904Z,13.57
2023-05-23T07:09:25.686Z,8.13
2023-05-23T07:12:21.790Z,12.33
2023-05-23T07:15:09.784Z,10.67
2023-05-23T07:18:03.358Z,10.17
2023-05-23T07:20:51.226Z,9.07
2023-05-23T07:23:42.206Z,13.70
2023-05-23T07:26:29.138Z,10.23
2023-05-23T07:29:16.586Z,13.60
2023-05-23T07:32:06.312Z,8.00
2023-05-23T07:34:53.130Z,12.00
2023-05-23T07:37:40.070Z,10.37
2023-05-23T07:40:28.186Z,10.33
2023-05-23T07:43:14.646Z,9.87
2023-05-23T07:46:01.577Z,12.53
2023-05-23T07:48:48.262Z,11.17
2023-05-23T07:51:35.102Z,10.37
2023-05-23T07:54:22.119Z,9.13
2023-05-23T07:57:16.678Z,13.77
2023-05-23T08:00:05.144Z,10.73
2023-05-23T08:03:01.655Z,8.77
2023-05-23T08:05:56.158Z,12.20
2023-05-23T08:08:43.959Z,10.27
2023-05-23T08:11:30.909Z,11.03
2023-05-23T08:14:19.119Z,11.20
2023-05-23T08:17:24.852Z,9.93
2023-05-23T08:20:13.471Z,8.53
2023-05-23T08:23:00.380Z,8.53
2023-05-23T08:25:47.052Z,10.50
2023-05-23T08:28:35.318Z,10.87
2023-05-23T08:31:27.683Z,10.67
2023-05-23T08:34:15.163Z,13.77
2023-05-23T08:37:02.750Z,12.63
2023-05-23T08:39:49.515Z,10.63
2023-05-23T08:42:59.328Z,11.33
2023-05-23T08:45:47.074Z,8.93
2023-05-23T08:48:39.188Z,9.43
2023-05-23T08:51:27.842Z,10.67
2023-05-23T08:54:18.153Z,10.93
2023-05-23T08:57:05.201Z,10.03
2023-05-23T08:59:59.231Z,11.07
2023-05-23T09:02:46.354Z,11.07
2023-05-23T09:05:59.154Z,10.40
2023-05-23T09:08:46.912Z,12.43
2023-05-23T09:11:36.320Z,8.40
2023-05-23T09:14:26.952Z,8.10
2023-05-23T09:17:19.272Z,8.93
2023-05-23T09:20:13.314Z,10.37
2023-05-23T09:23:07.258Z,10.13
2023-05-23T09:25:54.151Z,11.87
2023-05-23T09:28:44.000Z,10.60
2023-05-23T09:31:33.606Z,10.03
2023-05-23T09:34:21.891Z,14.00
2023-05-23T09:37:09.783Z,8.37
2023-05-23T09:39:58.374Z,9.17
2023-05-23T09:42:46.420Z,9.23
2023-05-23T09:45:34.331Z,10.13
2023-05-23T09:48:29.150Z,9.13
2023-05-23T09:51:16.340Z,7.87
2023-05-23T09:54:02.752Z,9.87
2023-05-23T09:56:54.082Z,7.80
2023-05-23T09:59:43.321Z,6.97
2023-05-23T10:02:55.905Z,7.60
2023-05-23T10:05:46.259Z,10.77
2023-05-23T10:08:38.236Z,10.13
2023-05-23T10:12:16.775Z,11.20
2023-05-23T10:15:04.918Z,8.70
2023-05-23T10:18:03.155Z,7.77
2023-05-23T10:20:50.981Z,10.00
2023-05-23T10:23:39.197Z,9.67
2023-05-23T10:26:26.456Z,9.30
2023-05-23T10:29:14.294Z,8.83
2023-05-23T10:32:02.812Z,6.63
2023-05-23T10:35:00.254Z,7.90
2023-05-23T10:37:53.767Z,10.63
2023-05-23T10:40:52.003Z,10.47
2023-05-23T10:43:48.476Z,6.63
2023-05-23T10:47:01.375Z,9.63
2023-05-23T10:49:52.806Z,7.97
2023-05-23T10:52:41.596Z,10.53
2023-05-23T10:55:33.614Z,6.50
2023-05-23T10:58:23.253Z,6.20
2023-05-23T11:01:11.046Z,6.10
2023-05-23T11:03:59.403Z,7.90
2023-05-23T11:06:46.414Z,6.20
2023-05-23T11:09:33.139Z,6.33
2023-05-23T11:12:38.619Z,6.70
2023-05-23T11:15:25.383Z,6.97
2023-05-23T11:18:20.725Z,9.93
2023-05-23T11:21:10.559Z,6.13
2023-05-23T11:23:57.211Z,9.83
2023-05-23T11:26:54.593Z,9.73
2023-05-23T11:29:41.520Z,7.40
2023-05-23T11:32:30.952Z,5.77
2023-05-23T11:35:18.193Z,9.40
2023-05-23T11:38:06.814Z,5.87
2023-05-23T11:40:53.438Z,12.60
2023-05-23T11:43:51.525Z,5.53
2023-05-23T11:46:38.278Z,6.93
2023-05-23T11:49:24.977Z,6.30
2023-05-23T11:52:11.827Z,6.20
2023-05-23T11:55:03.959Z,10.33
2023-05-23T11:57:51.898Z,12.03
2023-05-23T12:00:44.873Z,7.70
2023-05-23T12:03:32.007Z,7.07
2023-05-23T12:06:20.098Z,8.73
2023-05-23T12:09:06.891Z,6.77
2023-05-23T12:11:55.191Z,6.80
2023-05-23T12:14:44.937Z,8.87
2023-05-23T12:17:31.698Z,5.87
2023-05-23T12:20:18.488Z,7.00
2023-05-23T12:23:06.173Z,7.73
2023-05-23T12:25:53.894Z,6.93
2023-05-23T12:28:43.342Z,8.50
2023-05-23T12:31:30.062Z,8.07
2023-05-23T12:34:17.061Z,5.90
2023-05-23T12:39:53.586Z,8.37
2023-05-23T12:42:53.784Z,7.27
2023-05-23T12:45:42.142Z,7.57
2023-05-23T12:48:30.045Z,8.67
2023-05-23T12:51:17.178Z,7.57
2023-05-23T12:54:04.652Z,9.67
2023-05-23T12:56:52.318Z,5.67
2023-05-23T12:59:38.851Z,8.37
2023-05-23T13:02:28.071Z,6.97
2023-05-23T13:05:14.872Z,8.10
2023-05-23T13:08:01.752Z,15.77
2023-05-23T13:10:48.369Z,37.93
2023-05-23T13:13:35.567Z,23.67
2023-05-23T13:16:22.308Z,34.03
2023-05-23T13:19:11.097Z,31.63
2023-05-23T13:21:57.957Z,31.50
2023-05-23T13:24:44.952Z,30.67
2023-05-23T13:27:31.596Z,26.57
2023-05-23T13:30:18.531Z,24.37
2023-05-23T13:33:05.531Z,22.13
2023-05-23T13:35:54.382Z,21.63
2023-05-23T13:38:42.395Z,25.47
2023-05-23T13:41:31.995Z,22.47
2023-05-23T13:44:18.725Z,30.53
2023-05-23T13:47:13.402Z,25.97
2023-05-23T13:50:00.292Z,22.00
2023-05-23T13:52:49.656Z,22.90
2023-05-23T13:55:36.654Z,24.03
2023-05-23T13:58:23.366Z,22.20
2023-05-23T14:01:10.623Z,21.23
2023-05-23T14:03:57.256Z,20.90
2023-05-23T14:06:44.042Z,25.13
2023-05-23T14:09:32.350Z,26.33
2023-05-23T14:12:18.731Z,26.70
2023-05-23T14:15:06.076Z,31.53
2023-05-23T14:17:55.486Z,26.97
2023-05-23T14:20:42.442Z,30.10
2023-05-23T14:23:29.308Z,27.73
2023-05-23T14:26:17.568Z,30.43
2023-05-23T14:29:04.731Z,25.27
2023-05-23T14:31:51.573Z,21.03
2023-05-23T14:34:38.400Z,17.93
2023-05-23T14:37:25.445Z,17.07
2023-05-23T14:40:13.490Z,19.43
2023-05-23T14:43:01.295Z,18.77
2023-05-23T14:45:48.295Z,19.77
2023-05-23T14:48:35.117Z,19.00
2023-05-23T14:51:42.039Z,25.83
2023-05-23T14:54:28.515Z,19.90
2023-05-23T14:57:15.324Z,21.57
2023-05-23T15:00:06.118Z,22.03
2023-05-23T15:02:53.297Z,20.53
2023-05-23T15:05:39.984Z,23.53
2023-05-23T15:08:27.310Z,16.97
2023-05-23T15:11:14.072Z,18.30
2023-05-23T15:14:01.095Z,18.77
2023-05-23T15:16:50.584Z,18.33
2023-05-23T15:19:46.202Z,17.60
2023-05-23T15:22:39.520Z,16.50
2023-05-23T15:25:47.069Z,17.77
2023-05-23T15:28:35.594Z,15.57
2023-05-23T15:31:23.596Z,12.53
2023-05-23T15:34:15.181Z,11.07
2023-05-23T15:37:02.304Z,12.20
2023-05-23T15:39:49.503Z,9.30
2023-05-23T15:42:36.415Z,12.83
2023-05-23T15:45:23.483Z,12.97
2023-05-23T15:48:10.511Z,13.50
2023-05-23T15:50:58.559Z,10.47
2023-05-23T15:53:59.734Z,12.23
2023-05-23T15:56:48.171Z,10.87
2023-05-23T15:59:36.291Z,10.43
2023-05-23T16:02:23.384Z,11.87
2023-05-23T16:05:10.278Z,10.27
2023-05-23T16:07:58.271Z,13.40
2023-05-23T16:10:45.138Z,18.57
2023-05-23T16:13:32.054Z,13.30
2023-05-23T16:16:18.941Z,9.23
2023-05-23T16:19:06.049Z,9.70
2023-05-23T16:21:53.162Z,7.93
2023-05-23T16:24:41.360Z,7.20
2023-05-23T16:27:28.184Z,8.93
2023-05-23T16:30:15.716Z,10.67
2023-05-23T16:33:02.697Z,8.57
2023-05-23T16:35:49.785Z,7.10
2023-05-23T16:38:37.252Z,11.57
2023-05-23T16:41:25.626Z,7.73
2023-05-23T16:44:12.195Z,7.77
2023-05-23T16:46:58.891Z,7.93
2023-05-23T16:49:46.221Z,9.93
2023-05-23T16:52:33.114Z,7.63
2023-05-23T16:55:19.894Z,8.60
2023-05-23T16:58:08.184Z,8.00
2023-05-23T17:00:55.027Z,5.63
2023-05-23T17:03:42.298Z,8.07
2023-05-23T17:06:29.089Z,6.90
2023-05-23T17:09:17.975Z,6.07
2023-05-23T17:12:05.206Z,10.57
2023-05-23T17:14:53.109Z,6.57
2023-05-23T17:17:39.947Z,6.50
2023-05-23T17:20:27.170Z,3.93
2023-05-23T17:23:13.786Z,7.03
2023-05-23T17:26:00.517Z,5.17
2023-05-23T17:28:47.517Z,3.57
2023-05-23T17:31:35.690Z,4.23
2023-05-23T17:34:22.401Z,3.53
2023-05-23T17:37:09.451Z,5.43
2023-05-23T17:39:57.688Z,4.43
2023-05-23T17:42:44.997Z,4.00
2023-05-23T17:45:31.924Z,2.53
2023-05-23T17:48:25.814Z,2.20
2023-05-23T17:51:18.258Z,2.20
2023-05-23T17:54:05.179Z,1.80
2023-05-23T17:56:51.750Z,3.23
2023-05-23T17:59:38.433Z,1.50
2023-05-23T18:02:25.382Z,5.23
2023-05-23T18:05:15.334Z,6.70
2023-05-23T18:08:05.100Z,2.90
2023-05-23T18:10:54.796Z,2.40
2023-05-23T18:13:41.654Z,1.93
2023-05-23T18:16:29.100Z,7.20
2023-05-23T18:19:16.255Z,8.93
2023-05-23T18:22:04.106Z,5.03
2023-05-23T18:24:50.849Z,8.73
2023-05-23T18:27:37.637Z,9.27
2023-05-23T18:30:24.836Z,8.37
2023-05-23T18:33:11.719Z,11.40
2023-05-23T18:35:58.632Z,4.60
2023-05-23T18:38:46.765Z,9.97
2023-05-23T18:41:33.625Z,8.87
2023-05-23T18:44:20.958Z,8.37
2023-05-23T18:47:08.129Z,9.73
2023-05-23T18:49:54.920Z,8.80
2023-05-23T18:52:42.408Z,10.97
2023-05-23T18:55:30.580Z,10.20
2023-05-23T18:58:17.144Z,13.50
2023-05-23T19:01:04.244Z,7.57
2023-05-23T19:03:51.044Z,8.13
2023-05-23T19:06:37.630Z,7.83
2023-05-23T19:09:24.514Z,12.20
2023-05-23T19:12:12.676Z,12.70
2023-05-23T19:14:59.799Z,11.60
2023-05-23T19:17:46.638Z,10.43
2023-05-23T19:20:33.716Z,6.40
2023-05-23T19:23:20.781Z,10.00
2023-05-23T19:26:07.824Z,7.97
2023-05-23T19:28:55.765Z,11.67
2023-05-23T19:31:42.592Z,7.90
2023-05-23T19:34:29.285Z,13.80
2023-05-23T19:37:16.200Z,10.53
2023-05-23T19:40:03.094Z,10.00
2023-05-23T19:42:50.039Z,12.13
2023-05-23T19:45:38.244Z,16.20
2023-05-23T19:48:25.089Z,7.27
2023-05-23T19:51:12.057Z,13.70
2023-05-23T19:53:59.004Z,12.87
2023-05-23T19:56:46.331Z,12.90
2023-05-23T19:59:33.681Z,13.77
2023-05-23T20:02:25.215Z,10.03
2023-05-23T20:05:11.879Z,19.63
2023-05-23T20:07:58.429Z,9.90
2023-05-23T20:10:45.480Z,11.53
2023-05-23T20:13:34.095Z,9.80
2023-05-23T20:16:20.865Z,7.40
2023-05-23T20:19:09.787Z,7.60
2023-05-23T20:21:56.751Z,11.17
2023-05-23T20:24:43.374Z,11.67
2023-05-23T20:27:30.243Z,11.07
2023-05-23T20:30:17.236Z,10.90
2023-05-23T20:33:04.371Z,8.23
2023-05-23T20:35:54.083Z,9.37
2023-05-23T20:38:41.707Z,10.17
2023-05-23T20:41:29.679Z,12.10
2023-05-23T20:44:17.306Z,9.67
2023-05-23T20:47:04.025Z,12.03
2023-05-23T20:49:51.187Z,9.77
2023-05-23T20:52:41.455Z,9.50
2023-05-23T20:55:29.294Z,10.07
2023-05-23T20:58:16.459Z,15.17
2023-05-23T21:01:03.042Z,10.47
2023-05-23T21:03:49.773Z,7.00
2023-05-23T21:06:36.904Z,13.60
2023-05-23T21:09:25.112Z,10.70
2023-05-23T21:12:12.040Z,11.70
2023-05-23T21:14:58.889Z,11.93
2023-05-23T21:17:45.924Z,14.30
2023-05-23T21:20:32.708Z,10.70
2023-05-23T21:23:19.551Z,9.63
2023-05-23T21:26:07.951Z,10.90
2023-05-23T21:28:54.800Z,9.53
2023-05-23T21:31:42.198Z,12.37
2023-05-23T21:34:28.864Z,13.37
2023-05-23T21:37:16.108Z,9.90
2023-05-23T21:40:03.261Z,12.43
2023-05-23T21:42:52.962Z,13.60
2023-05-23T21:45:42.098Z,15.00
2023-05-23T21:48:31.313Z,15.43
2023-05-23T21:51:19.992Z,9.50
2023-05-23T21:54:08.869Z,9.33
2023-05-23T21:56:57.671Z,12.87
2023-05-23T21:59:50.787Z,12.57
2023-05-23T22:02:40.086Z,14.27
2023-05-23T22:05:28.891Z,9.37
2023-05-23T22:08:16.605Z,12.70
2023-05-23T22:11:04.730Z,12.07
2023-05-23T22:13:53.795Z,10.80
2023-05-23T22:16:46.316Z,15.33
2023-05-23T22:19:35.485Z,16.67
2023-05-23T22:22:24.967Z,15.77
2023-05-23T22:25:13.320Z,16.20
2023-05-23T22:28:02.354Z,14.17
2023-05-23T22:30:52.758Z,11.30
2023-05-23T22:33:44.032Z,15.83
2023-05-23T22:36:35.957Z,11.53
2023-05-23T22:39:25.856Z,15.17
2023-05-23T22:42:14.368Z,9.83
2023-05-23T22:45:02.811Z,11.03
2023-05-23T22:47:54.505Z,11.47
2023-05-23T22:50:49.041Z,14.57
2023-05-23T22:53:40.132Z,11.23
2023-05-23T22:56:28.338Z,15.13
2023-05-23T22:59:17.705Z,15.30
2023-05-23T23:02:08.410Z,11.90
2023-05-23T23:04:56.047Z,20.53
2023-05-23T23:07:44.163Z,16.40
2023-05-23T23:10:30.964Z,12.33
2023-05-23T23:13:18.126Z,17.00
2023-05-23T23:16:04.716Z,14.00
2023-05-23T23:18:52.251Z,12.60
2023-05-23T23:21:39.198Z,13.00
2023-05-23T23:24:27.284Z,7.87
2023-05-23T23:27:14.030Z,15.67
2023-05-23T23:30:01.085Z,16.50
2023-05-23T23:32:47.695Z,15.77
2023-05-23T23:35:34.487Z,13.13
2023-05-23T23:38:21.340Z,14.57
2023-05-23T23:41:09.690Z,12.57
2023-05-23T23:43:57.566Z,12.87
2023-05-23T23:46:44.629Z,15.83
2023-05-23T23:49:31.369Z,12.57
2023-05-23T23:52:18.281Z,10.53
2023-05-23T23:55:05.419Z,11.73
2023-05-23T23:57:53.622Z,10.23
